Meadowood Estates, Indiana
Current Conditions -  °F | °C
As of 12:55 PM on Tuesday 21 Oct 2014 (Local Time) from KMZZ Reporting Station
Overcast Overcast  
Wind Chill: 52°   Ceiling: 2700
Heat Index: 52°   Visibility: 10mi
Dew Point: 41°   Wind: 10mph
Humidity: 66%   Direction: 350°N
Pressure: 30.09"   Gusts: NA
Location:  40.3067°N, 85.834°W
Report Text: KMZZ 211655Z AUTO 35009KT 10SM OVC027 11/05 A3009 RMK AO2 T01100049
Loading
Personal Weather Stations






























Interactive Weather Map
Tropical Storm Tracking
New forecast layout! Learn more

10-Day Weather Forecast

Advertisements
Track Severe Weather on mobile